sensor_id;sensor_type;location;lat;lon;timestamp;P1;durP1;ratioP1;P2;durP2;ratioP2
67248;SDS011;63247;54.300;18.592;2022-09-20T00:01:13;5.50;;;2.08;;
67248;SDS011;63247;54.300;18.592;2022-09-20T00:03:41;6.13;;;2.25;;
67248;SDS011;63247;54.300;18.592;2022-09-20T00:06:10;6.03;;;2.30;;
67248;SDS011;63247;54.300;18.592;2022-09-20T00:08:38;9.60;;;2.10;;
67248;SDS011;63247;54.300;18.592;2022-09-20T00:11:08;5.45;;;2.10;;
67248;SDS011;63247;54.300;18.592;2022-09-20T00:13:40;7.18;;;1.92;;
67248;SDS011;63247;54.300;18.592;2022-09-20T00:16:07;5.10;;;1.90;;
67248;SDS011;63247;54.300;18.592;2022-09-20T00:18:34;5.10;;;1.87;;
67248;SDS011;63247;54.300;18.592;2022-09-20T00:21:00;5.45;;;1.83;;
67248;SDS011;63247;54.300;18.592;2022-09-20T00:23:26;7.57;;;2.10;;
67248;SDS011;63247;54.300;18.592;2022-09-20T00:25:55;7.63;;;1.95;;
67248;SDS011;63247;54.300;18.592;2022-09-20T00:28:21;6.07;;;1.90;;
67248;SDS011;63247;54.300;18.592;2022-09-20T00:30:48;4.37;;;1.70;;
67248;SDS011;63247;54.300;18.592;2022-09-20T00:33:13;5.45;;;1.90;;
67248;SDS011;63247;54.300;18.592;2022-09-20T00:35:42;5.83;;;1.57;;
67248;SDS011;63247;54.300;18.592;2022-09-20T00:38:08;6.40;;;1.85;;
67248;SDS011;63247;54.300;18.592;2022-09-20T00:40:34;6.20;;;2.17;;
67248;SDS011;63247;54.300;18.592;2022-09-20T00:43:00;5.17;;;1.80;;
67248;SDS011;63247;54.300;18.592;2022-09-20T00:45:26;5.10;;;1.80;;
67248;SDS011;63247;54.300;18.592;2022-09-20T00:47:58;5.25;;;1.80;;
67248;SDS011;63247;54.300;18.592;2022-09-20T00:50:45;5.50;;;1.70;;
67248;SDS011;63247;54.300;18.592;2022-09-20T00:53:17;4.97;;;1.80;;
67248;SDS011;63247;54.300;18.592;2022-09-20T00:55:50;5.47;;;1.98;;
67248;SDS011;63247;54.300;18.592;2022-09-20T00:58:19;7.63;;;2.00;;
67248;SDS011;63247;54.300;18.592;2022-09-20T01:00:45;5.13;;;1.90;;
67248;SDS011;63247;54.300;18.592;2022-09-20T01:03:12;5.65;;;1.80;;
67248;SDS011;63247;54.300;18.592;2022-09-20T01:05:41;7.32;;;2.10;;
67248;SDS011;63247;54.300;18.592;2022-09-20T01:08:09;5.65;;;2.25;;
67248;SDS011;63247;54.300;18.592;2022-09-20T01:10:35;5.80;;;2.23;;
67248;SDS011;63247;54.300;18.592;2022-09-20T01:13:01;6.40;;;2.40;;
67248;SDS011;63247;54.300;18.592;2022-09-20T01:15:28;5.75;;;2.40;;
67248;SDS011;63247;54.300;18.592;2022-09-20T01:17:57;5.28;;;1.90;;
67248;SDS011;63247;54.300;18.592;2022-09-20T01:20:25;5.40;;;1.90;;
67248;SDS011;63247;54.300;18.592;2022-09-20T01:28:31;4.28;;;1.77;;
67248;SDS011;63247;54.300;18.592;2022-09-20T01:36:38;5.22;;;2.00;;
67248;SDS011;63247;54.300;18.592;2022-09-20T01:41:47;5.68;;;1.70;;
67248;SDS011;63247;54.300;18.592;2022-09-20T01:47:16;5.77;;;1.63;;
67248;SDS011;63247;54.300;18.592;2022-09-20T01:49:56;5.40;;;1.90;;
67248;SDS011;63247;54.300;18.592;2022-09-20T02:00:27;4.23;;;1.43;;
67248;SDS011;63247;54.300;18.592;2022-09-20T02:05:37;9.32;;;1.85;;
67248;SDS011;63247;54.300;18.592;2022-09-20T02:13:32;4.23;;;1.30;;
67248;SDS011;63247;54.300;18.592;2022-09-20T02:22:09;4.55;;;1.30;;
67248;SDS011;63247;54.300;18.592;2022-09-20T02:30:47;4.60;;;1.23;;
67248;SDS011;63247;54.300;18.592;2022-09-20T02:34:17;4.68;;;1.20;;
67248;SDS011;63247;54.300;18.592;2022-09-20T02:39:16;4.22;;;1.40;;
67248;SDS011;63247;54.300;18.592;2022-09-20T02:41:56;3.70;;;1.30;;
67248;SDS011;63247;54.300;18.592;2022-09-20T02:47:24;4.10;;;1.33;;
67248;SDS011;63247;54.300;18.592;2022-09-20T03:01:21;3.50;;;1.20;;
67248;SDS011;63247;54.300;18.592;2022-09-20T03:04:07;3.00;;;1.02;;
67248;SDS011;63247;54.300;18.592;2022-09-20T03:09:26;3.80;;;1.17;;
67248;SDS011;63247;54.300;18.592;2022-09-20T03:15:15;4.15;;;1.20;;
67248;SDS011;63247;54.300;18.592;2022-09-20T03:42:48;5.60;;;1.30;;
67248;SDS011;63247;54.300;18.592;2022-09-20T03:56:48;4.55;;;1.40;;
67248;SDS011;63247;54.300;18.592;2022-09-20T04:05:04;4.45;;;1.40;;
67248;SDS011;63247;54.300;18.592;2022-09-20T04:13:16;6.35;;;1.92;;
67248;SDS011;63247;54.300;18.592;2022-09-20T04:18:42;6.78;;;1.55;;
67248;SDS011;63247;54.300;18.592;2022-09-20T04:26:41;4.13;;;1.40;;
67248;SDS011;63247;54.300;18.592;2022-09-20T04:29:14;4.38;;;1.73;;
67248;SDS011;63247;54.300;18.592;2022-09-20T04:32:02;5.45;;;1.80;;
67248;SDS011;63247;54.300;18.592;2022-09-20T04:34:47;6.30;;;1.90;;
67248;SDS011;63247;54.300;18.592;2022-09-20T04:37:40;4.22;;;1.58;;
67248;SDS011;63247;54.300;18.592;2022-09-20T04:43:21;5.60;;;1.60;;
67248;SDS011;63247;54.300;18.592;2022-09-20T04:46:01;4.82;;;1.75;;
67248;SDS011;63247;54.300;18.592;2022-09-20T04:56:55;3.40;;;1.38;;
67248;SDS011;63247;54.300;18.592;2022-09-20T05:16:04;4.63;;;1.67;;
67248;SDS011;63247;54.300;18.592;2022-09-20T05:21:58;4.22;;;1.38;;
67248;SDS011;63247;54.300;18.592;2022-09-20T05:28:15;4.75;;;1.60;;
67248;SDS011;63247;54.300;18.592;2022-09-20T05:39:16;5.43;;;1.90;;
67248;SDS011;63247;54.300;18.592;2022-09-20T05:45:01;4.47;;;1.67;;
67248;SDS011;63247;54.300;18.592;2022-09-20T05:56:03;4.90;;;1.80;;
67248;SDS011;63247;54.300;18.592;2022-09-20T06:01:03;10.35;;;2.10;;
67248;SDS011;63247;54.300;18.592;2022-09-20T06:03:47;4.70;;;1.60;;
67248;SDS011;63247;54.300;18.592;2022-09-20T06:06:28;3.55;;;1.38;;
67248;SDS011;63247;54.300;18.592;2022-09-20T06:14:47;5.75;;;1.58;;
67248;SDS011;63247;54.300;18.592;2022-09-20T06:20:07;6.57;;;1.35;;
67248;SDS011;63247;54.300;18.592;2022-09-20T06:22:44;5.45;;;1.10;;
67248;SDS011;63247;54.300;18.592;2022-09-20T06:25:27;4.95;;;1.25;;
67248;SDS011;63247;54.300;18.592;2022-09-20T06:28:03;4.70;;;1.60;;
67248;SDS011;63247;54.300;18.592;2022-09-20T06:30:44;4.70;;;1.50;;
67248;SDS011;63247;54.300;18.592;2022-09-20T06:33:17;7.53;;;1.42;;
67248;SDS011;63247;54.300;18.592;2022-09-20T06:36:00;8.68;;;1.60;;
67248;SDS011;63247;54.300;18.592;2022-09-20T06:41:50;6.35;;;1.92;;
67248;SDS011;63247;54.300;18.592;2022-09-20T06:44:16;3.53;;;1.20;;
67248;SDS011;63247;54.300;18.592;2022-09-20T06:46:41;6.47;;;1.50;;
67248;SDS011;63247;54.300;18.592;2022-09-20T06:49:07;6.85;;;1.50;;
67248;SDS011;63247;54.300;18.592;2022-09-20T06:51:34;6.23;;;1.60;;
67248;SDS011;63247;54.300;18.592;2022-09-20T06:54:01;6.07;;;1.60;;
67248;SDS011;63247;54.300;18.592;2022-09-20T06:56:28;5.35;;;1.38;;
67248;SDS011;63247;54.300;18.592;2022-09-20T06:59:01;5.05;;;1.38;;
67248;SDS011;63247;54.300;18.592;2022-09-20T07:01:27;5.72;;;1.30;;
67248;SDS011;63247;54.300;18.592;2022-09-20T07:03:53;6.07;;;1.67;;
67248;SDS011;63247;54.300;18.592;2022-09-20T07:06:18;4.50;;;1.40;;
67248;SDS011;63247;54.300;18.592;2022-09-20T07:08:44;2.90;;;1.07;;
67248;SDS011;63247;54.300;18.592;2022-09-20T07:11:11;3.67;;;1.23;;
67248;SDS011;63247;54.300;18.592;2022-09-20T07:13:40;7.78;;;1.60;;
67248;SDS011;63247;54.300;18.592;2022-09-20T07:16:13;6.55;;;1.40;;
67248;SDS011;63247;54.300;18.592;2022-09-20T07:18:39;3.40;;;1.20;;
67248;SDS011;63247;54.300;18.592;2022-09-20T07:21:05;3.80;;;1.45;;
67248;SDS011;63247;54.300;18.592;2022-09-20T07:23:32;3.22;;;1.60;;
67248;SDS011;63247;54.300;18.592;2022-09-20T07:25:58;5.53;;;1.30;;
67248;SDS011;63247;54.300;18.592;2022-09-20T07:28:28;4.43;;;1.20;;
67248;SDS011;63247;54.300;18.592;2022-09-20T07:30:56;3.65;;;1.30;;
67248;SDS011;63247;54.300;18.592;2022-09-20T07:33:21;3.57;;;1.20;;
67248;SDS011;63247;54.300;18.592;2022-09-20T07:35:49;2.92;;;1.10;;
67248;SDS011;63247;54.300;18.592;2022-09-20T07:38:17;5.82;;;1.13;;
67248;SDS011;63247;54.300;18.592;2022-09-20T07:40:43;6.07;;;1.07;;
67248;SDS011;63247;54.300;18.592;2022-09-20T07:43:12;3.47;;;1.08;;
67248;SDS011;63247;54.300;18.592;2022-09-20T07:45:37;3.07;;;1.00;;
67248;SDS011;63247;54.300;18.592;2022-09-20T07:48:06;2.50;;;1.10;;
67248;SDS011;63247;54.300;18.592;2022-09-20T07:50:33;4.70;;;1.20;;
67248;SDS011;63247;54.300;18.592;2022-09-20T07:52:59;5.10;;;1.10;;
67248;SDS011;63247;54.300;18.592;2022-09-20T07:55:26;2.20;;;0.90;;
67248;SDS011;63247;54.300;18.592;2022-09-20T07:57:52;3.13;;;1.00;;
67248;SDS011;63247;54.300;18.592;2022-09-20T08:00:19;3.20;;;0.90;;
67248;SDS011;63247;54.300;18.592;2022-09-20T08:02:44;3.30;;;1.10;;
67248;SDS011;63247;54.300;18.592;2022-09-20T08:05:10;2.20;;;0.83;;
67248;SDS011;63247;54.300;18.592;2022-09-20T08:07:35;1.65;;;0.60;;
67248;SDS011;63247;54.300;18.592;2022-09-20T08:10:03;2.47;;;1.05;;
67248;SDS011;63247;54.300;18.592;2022-09-20T08:12:29;4.28;;;1.17;;
67248;SDS011;63247;54.300;18.592;2022-09-20T08:14:56;3.70;;;1.20;;
67248;SDS011;63247;54.300;18.592;2022-09-20T08:17:22;3.00;;;0.95;;
67248;SDS011;63247;54.300;18.592;2022-09-20T08:19:47;2.40;;;1.17;;
67248;SDS011;63247;54.300;18.592;2022-09-20T08:22:14;2.28;;;1.02;;
67248;SDS011;63247;54.300;18.592;2022-09-20T08:24:40;2.37;;;0.87;;
67248;SDS011;63247;54.300;18.592;2022-09-20T08:27:06;3.15;;;0.95;;
67248;SDS011;63247;54.300;18.592;2022-09-20T08:29:33;5.07;;;1.20;;
67248;SDS011;63247;54.300;18.592;2022-09-20T08:31:58;2.80;;;1.20;;
67248;SDS011;63247;54.300;18.592;2022-09-20T08:34:26;2.72;;;0.98;;
67248;SDS011;63247;54.300;18.592;2022-09-20T08:36:51;3.08;;;1.20;;
67248;SDS011;63247;54.300;18.592;2022-09-20T08:39:20;2.97;;;1.10;;
67248;SDS011;63247;54.300;18.592;2022-09-20T08:41:49;2.63;;;1.08;;
67248;SDS011;63247;54.300;18.592;2022-09-20T08:44:29;3.45;;;1.00;;
67248;SDS011;63247;54.300;18.592;2022-09-20T08:47:10;4.43;;;0.90;;
67248;SDS011;63247;54.300;18.592;2022-09-20T08:49:47;1.98;;;0.80;;
67248;SDS011;63247;54.300;18.592;2022-09-20T08:52:16;2.03;;;0.70;;
67248;SDS011;63247;54.300;18.592;2022-09-20T08:54:45;3.50;;;0.82;;
67248;SDS011;63247;54.300;18.592;2022-09-20T08:57:15;2.10;;;0.95;;
67248;SDS011;63247;54.300;18.592;2022-09-20T08:59:42;4.88;;;1.00;;
67248;SDS011;63247;54.300;18.592;2022-09-20T09:02:18;2.43;;;1.30;;
67248;SDS011;63247;54.300;18.592;2022-09-20T09:04:45;4.97;;;0.90;;
67248;SDS011;63247;54.300;18.592;2022-09-20T09:07:13;2.65;;;1.00;;
67248;SDS011;63247;54.300;18.592;2022-09-20T09:09:42;2.40;;;1.00;;
67248;SDS011;63247;54.300;18.592;2022-09-20T09:12:25;3.58;;;1.10;;
67248;SDS011;63247;54.300;18.592;2022-09-20T09:14:58;2.97;;;0.70;;
67248;SDS011;63247;54.300;18.592;2022-09-20T09:17:27;2.33;;;0.60;;
67248;SDS011;63247;54.300;18.592;2022-09-20T09:20:38;4.32;;;0.82;;
67248;SDS011;63247;54.300;18.592;2022-09-20T09:22:47;3.78;;;0.85;;
67248;SDS011;63247;54.300;18.592;2022-09-20T09:25:24;1.90;;;0.70;;
67248;SDS011;63247;54.300;18.592;2022-09-20T09:28:00;1.90;;;0.70;;
67248;SDS011;63247;54.300;18.592;2022-09-20T09:30:31;2.00;;;0.70;;
67248;SDS011;63247;54.300;18.592;2022-09-20T09:33:33;2.13;;;0.70;;
67248;SDS011;63247;54.300;18.592;2022-09-20T09:36:12;2.60;;;0.70;;
67248;SDS011;63247;54.300;18.592;2022-09-20T09:38:43;3.85;;;0.63;;
67248;SDS011;63247;54.300;18.592;2022-09-20T09:43:41;1.83;;;0.60;;
67248;SDS011;63247;54.300;18.592;2022-09-20T09:46:22;2.03;;;0.50;;
67248;SDS011;63247;54.300;18.592;2022-09-20T09:49:03;2.05;;;0.40;;
67248;SDS011;63247;54.300;18.592;2022-09-20T09:51:36;1.73;;;0.50;;
67248;SDS011;63247;54.300;18.592;2022-09-20T09:54:02;1.98;;;0.60;;
67248;SDS011;63247;54.300;18.592;2022-09-20T10:10:03;2.30;;;0.50;;
67248;SDS011;63247;54.300;18.592;2022-09-20T10:23:32;2.70;;;1.10;;
67248;SDS011;63247;54.300;18.592;2022-09-20T10:29:20;4.15;;;0.65;;
67248;SDS011;63247;54.300;18.592;2022-09-20T10:34:37;2.40;;;0.70;;
67248;SDS011;63247;54.300;18.592;2022-09-20T10:37:31;4.75;;;0.85;;
67248;SDS011;63247;54.300;18.592;2022-09-20T10:40:22;1.90;;;0.70;;
67248;SDS011;63247;54.300;18.592;2022-09-20T10:42:50;2.03;;;0.50;;
67248;SDS011;63247;54.300;18.592;2022-09-20T10:49:16;2.00;;;0.57;;
67248;SDS011;63247;54.300;18.592;2022-09-20T10:54:07;2.25;;;0.70;;
67248;SDS011;63247;54.300;18.592;2022-09-20T10:56:57;4.57;;;0.90;;
67248;SDS011;63247;54.300;18.592;2022-09-20T10:59:43;4.60;;;1.00;;
67248;SDS011;63247;54.300;18.592;2022-09-20T11:02:49;1.98;;;0.60;;
67248;SDS011;63247;54.300;18.592;2022-09-20T11:08:19;2.60;;;0.80;;
67248;SDS011;63247;54.300;18.592;2022-09-20T11:10:59;7.07;;;0.80;;
67248;SDS011;63247;54.300;18.592;2022-09-20T11:16:09;2.45;;;0.60;;
67248;SDS011;63247;54.300;18.592;2022-09-20T11:26:30;3.03;;;1.10;;
67248;SDS011;63247;54.300;18.592;2022-09-20T11:31:43;3.20;;;0.70;;
67248;SDS011;63247;54.300;18.592;2022-09-20T11:34:15;2.42;;;0.75;;
67248;SDS011;63247;54.300;18.592;2022-09-20T11:36:49;3.30;;;1.00;;
67248;SDS011;63247;54.300;18.592;2022-09-20T11:39:29;2.80;;;0.63;;
67248;SDS011;63247;54.300;18.592;2022-09-20T11:42:12;2.70;;;0.77;;
67248;SDS011;63247;54.300;18.592;2022-09-20T11:44:40;2.65;;;0.63;;
67248;SDS011;63247;54.300;18.592;2022-09-20T11:56:19;4.90;;;1.00;;
67248;SDS011;63247;54.300;18.592;2022-09-20T11:58:49;3.00;;;0.90;;
67248;SDS011;63247;54.300;18.592;2022-09-20T12:01:36;4.25;;;0.95;;
67248;SDS011;63247;54.300;18.592;2022-09-20T12:07:40;6.83;;;1.10;;
67248;SDS011;63247;54.300;18.592;2022-09-20T12:12:48;5.65;;;1.27;;
67248;SDS011;63247;54.300;18.592;2022-09-20T12:28:56;3.17;;;0.90;;
67248;SDS011;63247;54.300;18.592;2022-09-20T12:36:41;3.95;;;1.00;;
67248;SDS011;63247;54.300;18.592;2022-09-20T12:44:39;3.30;;;1.10;;
67248;SDS011;63247;54.300;18.592;2022-09-20T12:47:23;3.25;;;1.20;;
67248;SDS011;63247;54.300;18.592;2022-09-20T12:49:51;4.57;;;1.30;;
67248;SDS011;63247;54.300;18.592;2022-09-20T13:03:50;6.43;;;1.55;;
67248;SDS011;63247;54.300;18.592;2022-09-20T13:08:53;5.40;;;1.40;;
67248;SDS011;63247;54.300;18.592;2022-09-20T13:14:09;8.50;;;1.77;;
67248;SDS011;63247;54.300;18.592;2022-09-20T13:16:51;7.00;;;1.90;;
67248;SDS011;63247;54.300;18.592;2022-09-20T13:19:23;5.53;;;1.80;;
67248;SDS011;63247;54.300;18.592;2022-09-20T13:24:36;4.32;;;1.30;;
67248;SDS011;63247;54.300;18.592;2022-09-20T13:27:07;4.72;;;1.50;;
67248;SDS011;63247;54.300;18.592;2022-09-20T13:29:38;5.53;;;1.70;;
67248;SDS011;63247;54.300;18.592;2022-09-20T13:35:32;3.97;;;1.50;;
67248;SDS011;63247;54.300;18.592;2022-09-20T13:40:55;7.80;;;1.38;;
67248;SDS011;63247;54.300;18.592;2022-09-20T13:43:00;4.28;;;1.30;;
67248;SDS011;63247;54.300;18.592;2022-09-20T13:45:29;4.82;;;1.40;;
67248;SDS011;63247;54.300;18.592;2022-09-20T13:47:57;5.23;;;1.87;;
67248;SDS011;63247;54.300;18.592;2022-09-20T13:52:51;2.93;;;0.87;;
67248;SDS011;63247;54.300;18.592;2022-09-20T13:58:22;3.50;;;1.00;;
67248;SDS011;63247;54.300;18.592;2022-09-20T14:00:50;2.50;;;0.70;;
67248;SDS011;63247;54.300;18.592;2022-09-20T14:03:18;3.78;;;1.10;;
67248;SDS011;63247;54.300;18.592;2022-09-20T14:05:45;3.13;;;0.80;;
67248;SDS011;63247;54.300;18.592;2022-09-20T14:08:20;3.95;;;1.00;;
67248;SDS011;63247;54.300;18.592;2022-09-20T14:11:01;6.65;;;1.20;;
67248;SDS011;63247;54.300;18.592;2022-09-20T14:13:32;3.22;;;0.90;;
67248;SDS011;63247;54.300;18.592;2022-09-20T14:16:02;3.05;;;1.00;;
67248;SDS011;63247;54.300;18.592;2022-09-20T14:18:28;3.00;;;1.03;;
67248;SDS011;63247;54.300;18.592;2022-09-20T14:20:53;2.72;;;1.00;;
67248;SDS011;63247;54.300;18.592;2022-09-20T14:23:20;2.85;;;0.90;;
67248;SDS011;63247;54.300;18.592;2022-09-20T14:28:44;2.20;;;0.70;;
67248;SDS011;63247;54.300;18.592;2022-09-20T14:31:21;4.20;;;0.80;;
67248;SDS011;63247;54.300;18.592;2022-09-20T14:33:49;3.10;;;0.80;;
67248;SDS011;63247;54.300;18.592;2022-09-20T14:36:20;3.17;;;0.77;;
67248;SDS011;63247;54.300;18.592;2022-09-20T14:38:48;2.08;;;0.70;;
67248;SDS011;63247;54.300;18.592;2022-09-20T14:41:23;3.55;;;0.80;;
67248;SDS011;63247;54.300;18.592;2022-09-20T14:43:53;4.78;;;1.17;;
67248;SDS011;63247;54.300;18.592;2022-09-20T14:46:26;3.88;;;1.17;;
67248;SDS011;63247;54.300;18.592;2022-09-20T14:49:17;3.60;;;1.10;;
67248;SDS011;63247;54.300;18.592;2022-09-20T14:51:46;4.10;;;1.10;;
67248;SDS011;63247;54.300;18.592;2022-09-20T14:54:17;4.68;;;0.80;;
67248;SDS011;63247;54.300;18.592;2022-09-20T14:56:51;4.90;;;1.15;;
67248;SDS011;63247;54.300;18.592;2022-09-20T15:01:43;4.05;;;1.10;;
67248;SDS011;63247;54.300;18.592;2022-09-20T15:04:20;3.40;;;1.02;;
67248;SDS011;63247;54.300;18.592;2022-09-20T15:06:47;4.03;;;1.10;;
67248;SDS011;63247;54.300;18.592;2022-09-20T15:09:14;3.53;;;1.10;;
67248;SDS011;63247;54.300;18.592;2022-09-20T15:11:40;4.43;;;1.40;;
67248;SDS011;63247;54.300;18.592;2022-09-20T15:14:06;6.50;;;1.47;;
67248;SDS011;63247;54.300;18.592;2022-09-20T15:16:32;6.97;;;1.50;;
67248;SDS011;63247;54.300;18.592;2022-09-20T15:18:57;4.87;;;1.30;;
67248;SDS011;63247;54.300;18.592;2022-09-20T15:21:23;4.63;;;1.30;;
67248;SDS011;63247;54.300;18.592;2022-09-20T15:23:49;5.30;;;1.40;;
67248;SDS011;63247;54.300;18.592;2022-09-20T15:26:16;6.60;;;1.60;;
67248;SDS011;63247;54.300;18.592;2022-09-20T15:28:44;5.70;;;1.60;;
67248;SDS011;63247;54.300;18.592;2022-09-20T15:31:10;5.47;;;1.80;;
67248;SDS011;63247;54.300;18.592;2022-09-20T15:33:37;6.90;;;1.80;;
67248;SDS011;63247;54.300;18.592;2022-09-20T15:36:03;4.57;;;1.70;;
67248;SDS011;63247;54.300;18.592;2022-09-20T15:38:29;6.10;;;1.80;;
67248;SDS011;63247;54.300;18.592;2022-09-20T15:40:54;5.63;;;1.80;;
67248;SDS011;63247;54.300;18.592;2022-09-20T15:43:21;4.78;;;1.80;;
67248;SDS011;63247;54.300;18.592;2022-09-20T15:45:55;5.77;;;1.97;;
67248;SDS011;63247;54.300;18.592;2022-09-20T15:48:24;5.47;;;1.70;;
67248;SDS011;63247;54.300;18.592;2022-09-20T15:53:28;7.53;;;2.80;;
67248;SDS011;63247;54.300;18.592;2022-09-20T15:56:03;4.50;;;1.83;;
67248;SDS011;63247;54.300;18.592;2022-09-20T15:58:37;4.37;;;1.70;;
67248;SDS011;63247;54.300;18.592;2022-09-20T16:01:06;5.72;;;1.90;;
67248;SDS011;63247;54.300;18.592;2022-09-20T16:03:35;8.63;;;1.80;;
67248;SDS011;63247;54.300;18.592;2022-09-20T16:06:02;5.73;;;1.80;;
67248;SDS011;63247;54.300;18.592;2022-09-20T16:08:30;7.07;;;2.10;;
67248;SDS011;63247;54.300;18.592;2022-09-20T16:10:57;6.55;;;2.40;;
67248;SDS011;63247;54.300;18.592;2022-09-20T16:13:24;7.88;;;2.60;;
67248;SDS011;63247;54.300;18.592;2022-09-20T16:15:56;6.30;;;2.15;;
67248;SDS011;63247;54.300;18.592;2022-09-20T16:18:24;7.27;;;2.47;;
67248;SDS011;63247;54.300;18.592;2022-09-20T16:21:09;10.05;;;3.45;;
67248;SDS011;63247;54.300;18.592;2022-09-20T16:23:37;9.32;;;2.97;;
67248;SDS011;63247;54.300;18.592;2022-09-20T16:26:04;8.38;;;2.78;;
67248;SDS011;63247;54.300;18.592;2022-09-20T16:28:30;9.02;;;2.95;;
67248;SDS011;63247;54.300;18.592;2022-09-20T16:30:57;9.40;;;3.00;;
67248;SDS011;63247;54.300;18.592;2022-09-20T16:33:23;6.40;;;2.45;;
67248;SDS011;63247;54.300;18.592;2022-09-20T16:35:49;8.85;;;3.10;;
67248;SDS011;63247;54.300;18.592;2022-09-20T16:38:16;8.50;;;3.20;;
67248;SDS011;63247;54.300;18.592;2022-09-20T16:40:42;8.33;;;3.47;;
67248;SDS011;63247;54.300;18.592;2022-09-20T16:43:08;10.98;;;3.80;;
67248;SDS011;63247;54.300;18.592;2022-09-20T16:45:44;10.80;;;4.60;;
67248;SDS011;63247;54.300;18.592;2022-09-20T16:48:11;14.37;;;5.40;;
67248;SDS011;63247;54.300;18.592;2022-09-20T16:50:36;15.00;;;5.43;;
67248;SDS011;63247;54.300;18.592;2022-09-20T16:53:02;12.00;;;4.63;;
67248;SDS011;63247;54.300;18.592;2022-09-20T16:55:28;13.60;;;5.43;;
67248;SDS011;63247;54.300;18.592;2022-09-20T16:57:54;15.60;;;6.40;;
67248;SDS011;63247;54.300;18.592;2022-09-20T17:00:20;14.75;;;5.55;;
67248;SDS011;63247;54.300;18.592;2022-09-20T17:02:49;12.55;;;4.30;;
67248;SDS011;63247;54.300;18.592;2022-09-20T17:05:15;14.77;;;5.27;;
67248;SDS011;63247;54.300;18.592;2022-09-20T17:07:41;12.32;;;5.32;;
67248;SDS011;63247;54.300;18.592;2022-09-20T17:10:09;14.48;;;6.15;;
67248;SDS011;63247;54.300;18.592;2022-09-20T17:12:35;15.57;;;6.00;;
67248;SDS011;63247;54.300;18.592;2022-09-20T17:15:06;18.70;;;9.73;;
67248;SDS011;63247;54.300;18.592;2022-09-20T17:17:35;21.07;;;11.57;;
67248;SDS011;63247;54.300;18.592;2022-09-20T17:20:01;16.02;;;8.32;;
67248;SDS011;63247;54.300;18.592;2022-09-20T17:22:28;10.80;;;4.37;;
67248;SDS011;63247;54.300;18.592;2022-09-20T17:24:54;11.35;;;4.43;;
67248;SDS011;63247;54.300;18.592;2022-09-20T17:27:19;12.95;;;4.20;;
67248;SDS011;63247;54.300;18.592;2022-09-20T17:29:46;12.00;;;4.50;;
67248;SDS011;63247;54.300;18.592;2022-09-20T17:32:11;16.00;;;5.78;;
67248;SDS011;63247;54.300;18.592;2022-09-20T17:34:37;14.30;;;4.80;;
67248;SDS011;63247;54.300;18.592;2022-09-20T17:37:03;12.43;;;5.18;;
67248;SDS011;63247;54.300;18.592;2022-09-20T17:39:29;15.57;;;4.93;;
67248;SDS011;63247;54.300;18.592;2022-09-20T17:41:55;11.97;;;4.50;;
67248;SDS011;63247;54.300;18.592;2022-09-20T17:44:20;13.87;;;5.27;;
67248;SDS011;63247;54.300;18.592;2022-09-20T17:46:47;13.30;;;5.68;;
67248;SDS011;63247;54.300;18.592;2022-09-20T17:49:14;12.48;;;5.47;;
67248;SDS011;63247;54.300;18.592;2022-09-20T17:51:48;14.70;;;5.67;;
67248;SDS011;63247;54.300;18.592;2022-09-20T17:54:16;13.65;;;5.43;;
67248;SDS011;63247;54.300;18.592;2022-09-20T17:56:44;13.73;;;5.18;;
67248;SDS011;63247;54.300;18.592;2022-09-20T17:59:11;14.65;;;5.38;;
67248;SDS011;63247;54.300;18.592;2022-09-20T18:01:39;14.68;;;5.50;;
67248;SDS011;63247;54.300;18.592;2022-09-20T18:04:06;14.83;;;5.80;;
67248;SDS011;63247;54.300;18.592;2022-09-20T18:06:34;13.35;;;5.40;;
67248;SDS011;63247;54.300;18.592;2022-09-20T18:09:10;15.02;;;5.60;;
67248;SDS011;63247;54.300;18.592;2022-09-20T18:11:40;13.45;;;5.50;;
67248;SDS011;63247;54.300;18.592;2022-09-20T18:14:09;13.45;;;4.65;;
67248;SDS011;63247;54.300;18.592;2022-09-20T18:16:35;12.20;;;4.80;;
67248;SDS011;63247;54.300;18.592;2022-09-20T18:19:01;15.48;;;6.30;;
67248;SDS011;63247;54.300;18.592;2022-09-20T18:21:29;13.05;;;5.20;;
67248;SDS011;63247;54.300;18.592;2022-09-20T18:23:57;16.80;;;4.97;;
67248;SDS011;63247;54.300;18.592;2022-09-20T18:26:26;9.60;;;4.55;;
67248;SDS011;63247;54.300;18.592;2022-09-20T18:28:57;11.40;;;4.85;;
67248;SDS011;63247;54.300;18.592;2022-09-20T18:31:40;14.50;;;4.95;;
67248;SDS011;63247;54.300;18.592;2022-09-20T18:34:10;11.10;;;4.90;;
67248;SDS011;63247;54.300;18.592;2022-09-20T18:36:42;11.93;;;4.30;;
67248;SDS011;63247;54.300;18.592;2022-09-20T18:39:09;11.48;;;4.53;;
67248;SDS011;63247;54.300;18.592;2022-09-20T18:41:36;11.80;;;4.43;;
67248;SDS011;63247;54.300;18.592;2022-09-20T18:44:03;10.60;;;4.22;;
67248;SDS011;63247;54.300;18.592;2022-09-20T18:46:31;12.17;;;4.80;;
67248;SDS011;63247;54.300;18.592;2022-09-20T18:49:03;17.13;;;5.57;;
67248;SDS011;63247;54.300;18.592;2022-09-20T18:51:34;13.43;;;5.15;;
67248;SDS011;63247;54.300;18.592;2022-09-20T18:54:00;15.98;;;5.50;;
67248;SDS011;63247;54.300;18.592;2022-09-20T18:58:57;12.00;;;5.38;;
67248;SDS011;63247;54.300;18.592;2022-09-20T19:01:32;11.15;;;4.68;;
67248;SDS011;63247;54.300;18.592;2022-09-20T19:09:47;9.40;;;3.63;;
67248;SDS011;63247;54.300;18.592;2022-09-20T19:20:47;10.05;;;3.40;;
67248;SDS011;63247;54.300;18.592;2022-09-20T19:25:49;10.43;;;3.70;;
67248;SDS011;63247;54.300;18.592;2022-09-20T19:28:31;14.95;;;5.78;;
67248;SDS011;63247;54.300;18.592;2022-09-20T19:30:57;11.27;;;4.70;;
67248;SDS011;63247;54.300;18.592;2022-09-20T19:33:23;7.35;;;3.65;;
67248;SDS011;63247;54.300;18.592;2022-09-20T19:35:49;11.10;;;3.60;;
67248;SDS011;63247;54.300;18.592;2022-09-20T19:53:08;11.18;;;4.30;;
67248;SDS011;63247;54.300;18.592;2022-09-20T19:55:34;13.55;;;3.90;;
67248;SDS011;63247;54.300;18.592;2022-09-20T19:58:01;11.35;;;3.78;;
67248;SDS011;63247;54.300;18.592;2022-09-20T20:00:26;8.67;;;4.10;;
67248;SDS011;63247;54.300;18.592;2022-09-20T20:02:54;9.90;;;3.70;;
67248;SDS011;63247;54.300;18.592;2022-09-20T20:05:20;12.93;;;3.60;;
67248;SDS011;63247;54.300;18.592;2022-09-20T20:10:43;10.32;;;3.38;;
67248;SDS011;63247;54.300;18.592;2022-09-20T20:16:10;10.80;;;3.65;;
67248;SDS011;63247;54.300;18.592;2022-09-20T20:18:41;10.55;;;4.28;;
67248;SDS011;63247;54.300;18.592;2022-09-20T20:21:11;11.10;;;4.47;;
67248;SDS011;63247;54.300;18.592;2022-09-20T20:23:58;12.50;;;4.90;;
67248;SDS011;63247;54.300;18.592;2022-09-20T20:26:35;12.07;;;4.40;;
67248;SDS011;63247;54.300;18.592;2022-09-20T20:29:01;13.10;;;4.87;;
67248;SDS011;63247;54.300;18.592;2022-09-20T20:31:26;11.45;;;4.68;;
67248;SDS011;63247;54.300;18.592;2022-09-20T20:33:53;12.37;;;4.77;;
67248;SDS011;63247;54.300;18.592;2022-09-20T20:36:18;9.55;;;4.20;;
67248;SDS011;63247;54.300;18.592;2022-09-20T20:38:44;11.50;;;4.13;;
67248;SDS011;63247;54.300;18.592;2022-09-20T20:41:14;10.57;;;4.15;;
67248;SDS011;63247;54.300;18.592;2022-09-20T20:43:43;11.25;;;4.13;;
67248;SDS011;63247;54.300;18.592;2022-09-20T20:46:11;9.52;;;3.70;;
67248;SDS011;63247;54.300;18.592;2022-09-20T20:48:42;11.93;;;3.57;;
67248;SDS011;63247;54.300;18.592;2022-09-20T20:51:16;8.95;;;3.47;;
67248;SDS011;63247;54.300;18.592;2022-09-20T20:53:45;10.68;;;3.60;;
67248;SDS011;63247;54.300;18.592;2022-09-20T20:56:13;9.57;;;3.17;;
67248;SDS011;63247;54.300;18.592;2022-09-20T20:58:40;11.38;;;3.78;;